If you wish to contribute or participate in the discussions about articles you are invited to join SKYbrary as a registered user

 Actions

Pau Pyrénées Airport

From SKYbrary Wiki

LFBP
Airport
ICAO: LFBP – IATA: PUF
Summary
Name Pau Pyrénées Airport
Region Europe
Territory France FR.gif
Location Uzein, Aquitaine
Serving Pau
Elevation 187.757 m
616 ft
616 ft187.757 m
Type medium airport
Coordinates 43° 22' 45.81" N, 0° 25' 6.43" W
Runways
Designator Length Width Surface ROPS
13/31 2500 m8,202.1 ft
45 m147.638 ft
ASP yes/yes


METAR
Observation LFBP 232230Z AUTO 23002KT 5000 BR SCT019 BKN028 BKN037 11/11 Q1008 TEMPO 0800 FG VV///
Station Pau
Date/Time 23 October 2019 22:30:00
Wind direction 230°
Wind speed 02 kts
Lowest cloud amount scattered clouds
Temperature 11°C
Dew point 11°C
Humidity 100%
QNH 1008 hPa
Weather condition n/a

Pau Pyrénées Airport

ICAO: LFBP IATA: PUF

Description

Pau Pyrénées Airport (French: Aéroport Pau Pyrénées) is an airport serving Pau, France. It is located 10 km5.4 nm
10,000 m
32,808.399 ft
northwest of Pau in Uzein.

Climatology

Temperate Marine climate/Oceanic climate (Köppen climate classification Cfb). Moderately cool summer and comparatively warm winter with a temperature range of only 14°C57.2 °F
287.15 K
516.87 °R
. Prevailing south-westerly winds from the Atlantic Ocean.

Maps

Terrain

Loading map...

Airport Layout

Loading map...


Accidents & Serious Incidents at or in vicinity of LFBP

None on SKYbrary